Time;durP1;ratioP1;P1;durP2;ratioP2;P2;SDS_P1;SDS_P2;PMS_P1;PMS_P2;Temp;Humidity;BMP_temperature;BMP_pressure;BME280_temperature;BME280_humidity;BME280_pressure;Samples;Min_cycle;Max_cycle;Signal;HPM_P1;HPM_P2
2022/05/14 00:01:48;;;;;;;15.83;9.05;;;;;;;11.91;75.76;99655.61;1778505;80;21084;-71
2022/05/14 00:04:15;;;;;;;16.70;8.58;;;;;;;11.90;76.12;99651.28;1778721;80;21033;-70
2022/05/14 00:06:42;;;;;;;16.20;8.80;;;;;;;11.89;76.12;99657.03;1778598;80;21084;-71
2022/05/14 00:09:08;;;;;;;15.95;8.53;;;;;;;11.90;75.87;99665.31;1779256;80;21002;-69
2022/05/14 00:14:21;;;;;;;17.40;8.63;;;;;;;11.87;76.76;99651.37;1760144;80;21100;-70
2022/05/14 00:16:48;;;;;;;16.15;8.15;;;;;;;11.89;76.86;99663.63;1785094;80;21116;-68
2022/05/14 00:19:14;;;;;;;14.58;8.35;;;;;;;11.88;77.14;99655.77;1754185;81;21002;-70
2022/05/14 00:21:42;;;;;;;14.65;8.25;;;;;;;11.84;77.59;99649.75;1785089;80;21095;-70
2022/05/14 00:24:09;;;;;;;17.02;8.45;;;;;;;11.83;78.02;99648.53;1753988;81;21174;-69
2022/05/14 00:26:37;;;;;;;17.17;8.23;;;;;;;11.79;78.44;99637.73;1784612;80;21053;-69
2022/05/14 00:29:06;;;;;;;16.20;7.72;;;;;;;11.80;78.58;99640.30;1753740;81;21533;-71
2022/05/14 00:31:32;;;;;;;11.65;6.78;;;;;;;11.79;78.70;99633.30;1784722;80;21064;-71
2022/05/14 00:33:59;;;;;;;13.40;7.47;;;;;;;11.77;78.70;99633.84;1754706;81;21169;-69
2022/05/14 00:36:25;;;;;;;11.75;6.65;;;;;;;11.72;78.79;99633.22;1784802;80;20974;-70
2022/05/14 00:38:54;;;;;;;12.58;7.37;;;;;;;11.64;79.12;99621.74;1753974;81;21029;-70
2022/05/14 00:41:20;;;;;;;14.07;8.25;;;;;;;11.61;78.87;99620.55;1784656;80;21046;-72
2022/05/14 00:43:57;;;;;;;15.32;9.05;;;;;;;11.58;79.12;99615.91;1754000;81;21049;-70
2022/05/14 00:46:32;;;;;;;14.05;8.75;;;;;;;11.53;80.17;99613.50;1784886;80;21061;-70
2022/05/14 00:48:58;;;;;;;16.82;10.45;;;;;;;11.49;80.98;99607.52;1761143;80;21181;-71
2022/05/14 00:51:28;;;;;;;19.23;9.13;;;;;;;11.45;82.10;99608.58;1810669;79;21050;-70
2022/05/14 00:54:04;;;;;;;14.75;9.70;;;;;;;11.42;82.90;99606.11;1780932;80;21169;-70
2022/05/14 00:56:37;;;;;;;19.37;10.70;;;;;;;11.39;83.28;99606.70;1810066;79;21014;-70
2022/05/14 00:59:16;;;;;;;16.30;10.28;;;;;;;11.33;83.73;99602.60;1810797;79;21006;-69
2022/05/14 01:01:45;;;;;;;15.45;10.05;;;;;;;11.29;84.30;99610.27;1810481;79;21154;-70
2022/05/14 01:04:13;;;;;;;14.83;8.85;;;;;;;11.23;84.79;99605.30;1811227;79;21046;-70
2022/05/14 01:06:44;;;;;;;15.78;9.30;;;;;;;11.17;84.84;99608.22;1810628;79;21017;-71
2022/05/14 01:09:11;;;;;;;16.93;9.75;;;;;;;11.12;84.86;99609.29;1810545;79;21026;-70
2022/05/14 01:11:38;;;;;;;18.60;9.50;;;;;;;11.08;85.30;99606.41;1810974;79;21033;-71
2022/05/14 01:14:06;;;;;;;18.30;9.90;;;;;;;11.04;85.70;99604.87;1794385;79;21182;-70
2022/05/14 01:16:35;;;;;;;17.00;9.48;;;;;;;11.01;85.83;99599.72;1784960;80;21013;-69
2022/05/14 01:19:03;;;;;;;22.30;9.05;;;;;;;11.00;86.01;99603.30;1754320;81;21533;-70
2022/05/14 01:22:01;;;;;;;16.00;9.50;;;;;;;10.98;85.61;99606.46;1784603;80;21073;-70
2022/05/14 01:27:38;;;;;;;15.08;9.00;;;;;;;10.98;85.74;99595.08;1784681;80;21300;-70
2022/05/14 01:30:06;;;;;;;20.60;10.00;;;;;;;10.98;85.99;99593.29;1753851;81;21046;-69
2022/05/14 01:32:33;;;;;;;19.32;11.43;;;;;;;11.01;86.43;99593.12;1784776;80;21052;-70
2022/05/14 01:35:00;;;;;;;18.07;10.93;;;;;;;11.02;86.65;99584.31;1754093;81;21049;-70
2022/05/14 01:37:26;;;;;;;15.30;9.15;;;;;;;11.05;86.33;99577.58;1785229;80;21056;-69
2022/05/14 01:39:53;;;;;;;14.07;8.53;;;;;;;11.08;85.62;99580.05;1794227;80;21143;-69
2022/05/14 01:42:20;;;;;;;16.65;8.45;;;;;;;11.13;85.38;99584.66;1762826;80;21057;-70
2022/05/14 01:44:47;;;;;;;16.73;9.70;;;;;;;11.18;85.12;99586.20;1794016;80;21100;-71
2022/05/14 01:47:13;;;;;;;24.70;10.63;;;;;;;11.21;84.73;99583.44;1794126;80;21108;-71
2022/05/14 01:49:40;;;;;;;21.42;10.80;;;;;;;11.23;84.66;99584.22;1794109;79;21572;-70
2022/05/14 01:52:07;;;;;;;17.73;9.60;;;;;;;11.21;85.08;99582.12;1794026;80;21158;-70
2022/05/14 01:54:34;;;;;;;21.37;9.85;;;;;;;11.18;85.27;99575.66;1794042;80;21064;-70
2022/05/14 01:57:00;;;;;;;19.67;10.18;;;;;;;11.26;85.27;99574.84;1794000;80;21048;-70
2022/05/14 01:59:28;;;;;;;17.23;9.55;;;;;;;11.29;85.07;99578.62;1793795;80;21005;-72
2022/05/14 02:01:54;;;;;;;19.55;10.25;;;;;;;11.29;85.21;99581.27;1793838;80;21076;-71
2022/05/14 02:04:21;;;;;;;18.52;10.65;;;;;;;11.26;85.24;99580.11;1762650;80;21398;-71
2022/05/14 02:06:48;;;;;;;21.23;10.70;;;;;;;11.26;85.38;99584.06;1793709;80;21142;-71
2022/05/14 02:09:14;;;;;;;19.23;11.75;;;;;;;11.27;85.28;99585.75;1794209;80;21340;-70
2022/05/14 02:11:43;;;;;;;15.90;10.20;;;;;;;11.25;85.95;99588.92;1793950;80;20990;-71
2022/05/14 02:14:15;;;;;;;16.48;10.45;;;;;;;11.24;86.74;99581.95;1769668;80;21616;-70
2022/05/14 02:16:42;;;;;;;18.48;9.93;;;;;;;11.22;87.48;99575.91;1762745;81;21108;-69
2022/05/14 02:19:09;;;;;;;17.00;9.50;;;;;;;11.20;88.07;99573.33;1762765;81;21061;-70
2022/05/14 02:21:36;;;;;;;13.13;8.45;;;;;;;11.16;88.54;99570.92;1762654;81;21096;-72
2022/05/14 02:24:03;;;;;;;13.58;7.87;;;;;;;11.16;88.66;99565.65;1762765;81;21040;-70
2022/05/14 02:26:29;;;;;;;16.62;8.58;;;;;;;11.10;88.59;99565.02;1762567;81;21147;-70
2022/05/14 02:28:57;;;;;;;16.45;7.42;;;;;;;11.11;88.52;99569.83;1762584;81;21089;-70
2022/05/14 02:31:23;;;;;;;12.70;7.70;;;;;;;11.11;88.17;99564.55;1762782;81;21037;-70
2022/05/14 02:33:50;;;;;;;13.58;8.18;;;;;;;11.11;88.04;99565.44;1762639;81;21073;-70
2022/05/14 02:36:19;;;;;;;13.88;8.88;;;;;;;11.09;87.96;99567.28;1762503;81;21564;-69
2022/05/14 02:38:46;;;;;;;16.42;9.08;;;;;;;11.12;88.29;99556.58;1762762;81;21073;-71
2022/05/14 02:41:15;;;;;;;13.43;8.05;;;;;;;11.13;88.95;99562.27;1762668;81;21325;-70
2022/05/14 02:43:42;;;;;;;14.73;8.53;;;;;;;11.13;89.70;99557.43;1762495;81;21041;-70
2022/05/14 02:46:09;;;;;;;13.10;8.20;;;;;;;11.13;90.14;99553.04;1762988;81;21081;-71
2022/05/14 02:48:36;;;;;;;14.70;8.95;;;;;;;11.14;90.70;99549.94;1731525;80;21622;-71
2022/05/14 02:51:03;;;;;;;13.80;8.40;;;;;;;11.14;90.45;99548.61;1730651;82;21056;-70
2022/05/14 02:53:30;;;;;;;13.35;8.23;;;;;;;11.15;90.40;99555.58;1750132;82;21770;-69
2022/05/14 02:55:57;;;;;;;12.93;8.25;;;;;;;11.17;90.46;99556.83;1730652;82;21324;-71
2022/05/14 03:03:26;;;;;;;12.65;7.30;;;;;;;11.26;91.19;99554.59;1796225;79;28613;-70
2022/05/14 03:05:53;;;;;;;18.27;9.78;;;;;;;11.22;90.88;99554.81;1756362;81;21022;-70
2022/05/14 03:08:20;;;;;;;14.45;7.70;;;;;;;11.29;90.72;99552.27;1756383;81;22075;-70
2022/05/14 03:10:47;;;;;;;12.18;7.87;;;;;;;11.34;90.32;99552.89;1756251;81;21065;-70
2022/05/14 03:13:13;;;;;;;13.32;9.03;;;;;;;11.40;89.95;99557.02;1756603;81;21018;-70
2022/05/14 03:15:41;;;;;;;22.10;9.08;;;;;;;11.47;89.99;99552.67;1756414;81;21051;-72
2022/05/14 03:18:08;;;;;;;14.60;8.30;;;;;;;11.54;90.09;99553.23;1756420;81;21046;-69
2022/05/14 03:20:34;;;;;;;13.18;8.35;;;;;;;11.58;90.82;99559.21;1756143;81;21132;-70
2022/05/14 03:23:02;;;;;;;11.97;7.22;;;;;;;11.64;91.66;99571.63;1756210;81;21026;-70
2022/05/14 03:25:28;;;;;;;12.78;6.92;;;;;;;11.67;91.59;99569.30;1739757;81;21036;-71
2022/05/14 03:27:55;;;;;;;12.63;6.55;;;;;;;11.74;91.28;99580.77;1726426;83;21047;-69
2022/05/14 03:30:22;;;;;;;11.38;5.37;;;;;;;11.81;91.43;99570.77;1726362;83;21058;-70
2022/05/14 03:32:48;;;;;;;11.05;5.95;;;;;;;11.91;91.20;99572.02;1726308;82;21098;-71
2022/05/14 03:35:17;;;;;;;10.00;5.85;;;;;;;12.03;90.39;99581.56;1726255;82;21095;-70
2022/05/14 03:37:45;;;;;;;10.00;5.65;;;;;;;12.29;90.24;99587.66;1726482;81;21055;-71
2022/05/14 03:40:12;;;;;;;10.93;5.80;;;;;;;12.66;88.68;99585.70;1726203;83;21138;-71
2022/05/14 03:42:40;;;;;;;11.18;5.33;;;;;;;13.01;86.36;99577.61;1726187;83;21059;-71
2022/05/14 03:45:08;;;;;;;11.15;5.40;;;;;;;13.30;84.91;99572.52;1726421;82;21224;-70
2022/05/14 03:47:36;;;;;;;11.93;5.30;;;;;;;13.41;83.72;99565.67;1726329;82;21523;-70
2022/05/14 03:50:04;;;;;;;12.58;5.12;;;;;;;13.43;83.05;99568.20;1726284;83;21055;-72
2022/05/14 03:52:30;;;;;;;9.85;5.58;;;;;;;13.43;81.93;99578.78;1726372;82;21101;-72
2022/05/14 03:54:57;;;;;;;12.88;5.33;;;;;;;13.49;81.28;99581.09;1726164;81;21055;-70
2022/05/14 03:57:24;;;;;;;10.23;5.28;;;;;;;13.68;80.37;99576.89;1726299;82;21228;-70
2022/05/14 03:59:50;;;;;;;14.23;6.00;;;;;;;13.80;80.48;99566.05;1726426;83;21020;-70
2022/05/14 04:02:17;;;;;;;9.13;5.12;;;;;;;14.19;79.43;99551.36;1723886;82;21125;-71
2022/05/14 04:04:45;;;;;;;6.40;4.35;;;;;;;14.81;77.14;99557.21;1721510;82;21080;-70
2022/05/14 04:07:11;;;;;;;7.55;5.35;;;;;;;15.16;73.99;99536.88;1721397;83;21082;-71
2022/05/14 04:09:38;;;;;;;9.08;4.60;;;;;;;15.31;72.54;99531.03;1721218;82;21258;-71
2022/05/14 04:12:07;;;;;;;9.48;4.87;;;;;;;15.56;71.50;99524.94;1721250;83;21619;-70
2022/05/14 04:14:36;;;;;;;12.30;4.78;;;;;;;16.04;69.35;99530.55;1720950;82;21025;-71
2022/05/14 04:17:03;;;;;;;11.12;4.45;;;;;;;16.56;68.07;99528.22;1720281;82;21343;-71
2022/05/14 04:19:30;;;;;;;9.40;4.35;;;;;;;17.06;64.65;99523.35;1685750;85;22223;-70
2022/05/14 04:21:57;;;;;;;8.75;4.20;;;;;;;17.14;63.22;99526.31;1720653;82;21152;-70
2022/05/14 04:24:23;;;;;;;11.12;4.70;;;;;;;17.06;62.64;99524.20;1720655;83;21665;-71
2022/05/14 04:26:50;;;;;;;10.72;4.62;;;;;;;17.01;63.11;99512.20;1685862;85;21045;-70
2022/05/14 04:29:17;;;;;;;11.48;5.03;;;;;;;16.84;63.25;99519.61;1720765;82;21038;-71
2022/05/14 04:31:43;;;;;;;13.48;5.37;;;;;;;16.74;63.51;99523.36;1720699;83;21097;-70
2022/05/14 04:34:11;;;;;;;10.30;4.90;;;;;;;16.62;64.12;99536.22;1720773;83;21224;-71
2022/05/14 04:36:38;;;;;;;8.98;4.78;;;;;;;16.41;65.16;99531.95;1720901;83;21026;-70
2022/05/14 04:39:05;;;;;;;12.33;4.50;;;;;;;16.24;65.66;99520.32;1720730;83;21025;-71
2022/05/14 04:41:33;;;;;;;7.03;4.55;;;;;;;16.05;66.65;99521.61;1721008;83;21128;-70
2022/05/14 04:44:02;;;;;;;8.53;4.45;;;;;;;15.84;67.83;99517.79;1685976;85;21300;-70
2022/05/14 04:46:31;;;;;;;9.78;4.60;;;;;;;15.70;68.47;99516.92;1685866;85;21289;-69
2022/05/14 04:48:58;;;;;;;8.75;4.78;;;;;;;15.51;70.17;99510.66;1702296;83;21088;-71
2022/05/14 04:51:25;;;;;;;11.85;4.60;;;;;;;15.38;70.96;99512.91;1686067;85;21104;-71
2022/05/14 04:53:52;;;;;;;7.87;4.95;;;;;;;15.40;71.17;99507.02;1658163;85;21017;-70
2022/05/14 04:56:19;;;;;;;9.28;4.62;;;;;;;15.44;71.77;99502.73;1686007;85;21055;-71
2022/05/14 04:58:46;;;;;;;13.13;5.17;;;;;;;15.46;70.86;99502.61;1658160;85;21171;-72
2022/05/14 05:01:13;;;;;;;9.93;5.00;;;;;;;15.54;70.28;99500.30;1720818;83;21490;-71
2022/05/14 05:03:40;;;;;;;8.33;4.60;;;;;;;15.63;70.90;99506.80;1714234;83;21085;-69
2022/05/14 05:06:08;;;;;;;10.28;4.60;;;;;;;15.62;70.45;99507.28;1678609;85;21557;-70
2022/05/14 05:08:35;;;;;;;11.03;4.87;;;;;;;15.71;69.61;99510.67;1713053;83;21093;-70
2022/05/14 05:11:01;;;;;;;10.28;5.17;;;;;;;16.07;69.36;99507.75;1713112;83;21433;-72
2022/05/14 05:13:30;;;;;;;17.32;5.10;;;;;;;16.63;68.00;99518.45;1712889;82;21521;-71
2022/05/14 05:15:57;;;;;;;10.00;5.20;;;;;;;17.26;65.69;99514.75;1712939;82;21118;-70
2022/05/14 05:18:24;;;;;;;11.75;5.03;;;;;;;17.86;63.59;99516.06;1713126;83;21575;-70
2022/05/14 05:20:53;;;;;;;7.17;4.25;;;;;;;18.38;61.98;99514.17;1713182;82;21051;-72
2022/05/14 05:23:21;;;;;;;11.22;4.58;;;;;;;18.86;60.06;99510.36;1702991;83;21301;-72
2022/05/14 05:25:48;;;;;;;6.40;4.60;;;;;;;19.41;57.48;99504.47;1713319;82;21087;-71
2022/05/14 05:28:16;;;;;;;9.90;4.45;;;;;;;19.86;55.35;99506.94;1713140;83;21039;-71
2022/05/14 05:30:43;;;;;;;7.67;3.80;;;;;;;20.29;53.81;99520.61;1713275;82;21175;-72
2022/05/14 05:33:12;;;;;;;5.75;3.98;;;;;;;20.40;52.09;99534.86;1713003;82;21115;-70
2022/05/14 05:35:39;;;;;;;8.65;4.62;;;;;;;20.41;51.82;99536.56;1713033;82;21913;-72
2022/05/14 05:38:07;;;;;;;5.87;4.20;;;;;;;20.54;52.33;99521.11;1712984;83;21048;-70
2022/05/14 05:40:34;;;;;;;6.92;4.58;;;;;;;20.76;51.55;99507.22;1713166;82;21078;-72
2022/05/14 05:43:01;;;;;;;9.13;4.72;;;;;;;21.13;50.90;99518.96;1713202;83;21135;-72
2022/05/14 05:45:29;;;;;;;8.63;3.98;;;;;;;21.51;49.67;99501.73;1713008;83;21587;-72
2022/05/14 05:47:56;;;;;;;10.93;4.58;;;;;;;21.87;48.11;99502.81;1712903;82;21139;-71
2022/05/14 05:50:22;;;;;;;8.48;3.50;;;;;;;21.54;48.42;99490.75;1713388;82;21024;-71
2022/05/14 05:52:51;;;;;;;8.38;4.30;;;;;;;21.30;49.16;99508.07;1712886;83;21064;-72
2022/05/14 05:58:03;;;;;;;11.22;4.37;;;;;;;21.89;47.79;99497.31;1712995;83;21056;-71
2022/05/14 06:00:30;;;;;;;12.35;4.40;;;;;;;22.62;46.70;99498.83;1712920;83;21257;-71
2022/05/14 06:02:57;;;;;;;12.07;4.40;;;;;;;23.19;44.81;99492.77;1712955;82;21099;-71
2022/05/14 06:05:23;;;;;;;10.28;4.70;;;;;;;23.17;43.73;99489.39;1713177;83;21048;-69
2022/05/14 06:07:50;;;;;;;7.53;4.03;;;;;;;22.91;43.28;99491.92;1713005;83;21019;-70
2022/05/14 06:10:18;;;;;;;11.43;4.83;;;;;;;22.40;43.98;99494.19;1713132;83;21004;-71
2022/05/14 06:12:46;;;;;;;8.45;4.50;;;;;;;22.10;44.86;99494.42;1713212;83;21086;-70
2022/05/14 06:15:17;;;;;;;6.90;4.22;;;;;;;22.00;44.80;99494.46;1678255;85;21017;-70
2022/05/14 06:17:45;;;;;;;9.80;4.55;;;;;;;21.88;45.36;99493.80;1678639;85;21041;-71
2022/05/14 06:20:14;;;;;;;9.75;5.00;;;;;;;21.65;45.75;99495.08;1712875;83;21093;-70
2022/05/14 06:22:41;;;;;;;10.40;5.17;;;;;;;21.58;45.93;99495.67;1678600;85;21631;-71
2022/05/14 06:25:08;;;;;;;11.00;5.20;;;;;;;21.52;47.30;99495.40;1678351;85;21834;-70
2022/05/14 06:27:35;;;;;;;10.48;5.10;;;;;;;21.40;47.16;99489.34;1678326;85;21044;-71
2022/05/14 06:30:03;;;;;;;11.48;5.40;;;;;;;21.30;48.20;99485.78;1712999;83;21105;-71
2022/05/14 06:32:30;;;;;;;13.43;5.00;;;;;;;21.18;48.68;99489.59;1712685;83;21038;-71
2022/05/14 06:34:56;;;;;;;10.28;5.15;;;;;;;21.07;49.17;99492.77;1712954;83;22194;-69
2022/05/14 06:37:23;;;;;;;15.05;6.08;;;;;;;21.00;49.01;99494.28;1678364;85;21159;-71
2022/05/14 06:39:49;;;;;;;13.28;5.92;;;;;;;21.06;48.72;99490.22;1713169;83;21065;-71
2022/05/14 06:42:18;;;;;;;15.70;5.40;;;;;;;21.09;48.49;99494.78;1678392;85;21521;-70
2022/05/14 06:44:44;;;;;;;11.73;5.67;;;;;;;21.14;47.98;99492.56;1713312;83;20998;-72
2022/05/14 06:47:11;;;;;;;14.55;6.20;;;;;;;21.21;47.44;99500.01;1678797;85;21042;-71
2022/05/14 06:49:38;;;;;;;13.25;6.20;;;;;;;21.19;47.77;99504.19;1713226;83;21334;-71
2022/05/14 06:52:06;;;;;;;15.80;6.42;;;;;;;21.22;47.56;99509.75;1712684;83;21035;-71
2022/05/14 06:54:32;;;;;;;13.80;6.40;;;;;;;21.15;46.81;99509.46;1678665;85;21578;-71
2022/05/14 06:57:00;;;;;;;15.35;7.33;;;;;;;21.07;46.91;99512.84;1678444;85;21057;-70
2022/05/14 06:59:27;;;;;;;34.45;16.30;;;;;;;20.98;46.95;99510.13;1678595;85;21097;-71
2022/05/14 07:01:55;;;;;;;20.05;10.05;;;;;;;20.87;46.60;99507.11;1712939;83;21577;-72
2022/05/14 07:07:06;;;;;;;20.27;8.90;;;;;;;20.95;45.70;99511.26;1726216;83;21217;-70
2022/05/14 07:09:33;;;;;;;21.52;9.53;;;;;;;21.08;46.24;99513.69;1690926;84;21016;-71
2022/05/14 07:12:08;;;;;;;23.25;9.55;;;;;;;21.33;45.74;99518.48;1691093;84;21020;-71
2022/05/14 07:14:35;;;;;;;30.62;10.08;;;;;;;21.51;45.35;99517.33;1690760;84;21890;-70
2022/05/14 07:17:03;;;;;;;25.05;10.90;;;;;;;21.67;44.55;99519.91;1690851;84;21068;-71
2022/05/14 07:19:30;;;;;;;22.42;11.25;;;;;;;21.77;44.60;99517.58;1690883;84;21353;-71
2022/05/14 07:21:57;;;;;;;22.25;11.45;;;;;;;21.57;44.29;99518.08;1690877;84;21060;-71
2022/05/14 07:24:28;;;;;;;22.62;10.63;;;;;;;21.33;44.45;99525.69;1690790;84;21040;-70
2022/05/14 07:26:57;;;;;;;26.45;12.03;;;;;;;21.03;44.79;99530.16;1690971;84;21149;-71
2022/05/14 07:29:25;;;;;;;24.90;11.97;;;;;;;20.85;45.19;99533.99;1691044;84;21072;-71
2022/05/14 07:31:52;;;;;;;26.27;10.93;;;;;;;20.81;45.97;99535.74;1691105;84;21100;-70
2022/05/14 07:34:19;;;;;;;28.40;10.43;;;;;;;20.86;45.56;99539.69;1691156;84;21064;-72
2022/05/14 07:37:22;;;;;;;26.30;10.60;;;;;;;20.89;45.23;99543.91;1691292;84;21060;-71
2022/05/14 07:39:54;;;;;;;26.07;13.35;;;;;;;20.94;45.20;99544.37;1690954;84;21725;-71
2022/05/14 07:42:34;;;;;;;25.17;11.88;;;;;;;21.02;45.04;99549.87;1691097;84;21032;-69
2022/05/14 07:45:03;;;;;;;26.33;12.58;;;;;;;21.18;45.02;99548.50;1691063;84;21123;-70
2022/05/14 07:47:29;;;;;;;26.12;12.40;;;;;;;21.45;44.64;99550.03;1691072;84;21592;-71
2022/05/14 07:49:55;;;;;;;29.27;14.15;;;;;;;21.78;44.42;99546.55;1691074;84;21687;-71
2022/05/14 07:52:22;;;;;;;28.55;13.38;;;;;;;22.31;43.11;99546.55;1691031;84;21150;-71
2022/05/14 07:54:49;;;;;;;34.15;13.28;;;;;;;22.88;41.23;99551.80;1690829;84;21088;-70
2022/05/14 07:57:18;;;;;;;32.93;14.03;;;;;;;23.38;39.70;99538.77;1691165;84;21052;-71
2022/05/14 07:59:44;;;;;;;33.33;15.28;;;;;;;23.71;38.88;99548.97;1690979;84;21112;-70
2022/05/14 08:02:31;;;;;;;26.05;13.93;;;;;;;23.76;38.44;99550.72;1691152;84;21108;-71
2022/05/14 08:04:56;;;;;;;33.53;14.35;;;;;;;23.81;38.71;99551.09;1679643;84;21114;-71
2022/05/14 08:07:23;;;;;;;30.23;14.25;;;;;;;23.80;37.33;99557.48;1678514;85;21069;-71
2022/05/14 08:09:49;;;;;;;27.62;14.95;;;;;;;23.91;37.53;99555.89;1713332;83;21192;-70
2022/05/14 08:12:16;;;;;;;33.00;14.73;;;;;;;24.10;37.90;99555.34;1713319;83;22099;-71
2022/05/14 08:14:43;;;;;;;28.50;14.07;;;;;;;24.47;36.75;99553.23;1712954;83;21046;-71
2022/05/14 08:17:10;;;;;;;28.65;13.03;;;;;;;24.84;36.27;99557.44;1713219;83;21229;-70
2022/05/14 08:19:36;;;;;;;29.15;12.43;;;;;;;25.11;34.51;99542.05;1712894;82;21045;-70
2022/05/14 08:24:49;;;;;;;19.70;9.60;;;;;;;25.49;32.70;99559.98;1713257;83;21022;-71
2022/05/14 08:27:16;;;;;;;22.62;10.35;;;;;;;25.40;32.41;99559.63;1678837;85;21560;-72
2022/05/14 08:29:47;;;;;;;25.90;10.65;;;;;;;25.17;32.62;99564.77;1712877;83;21111;-73
2022/05/14 08:32:18;;;;;;;26.30;12.60;;;;;;;24.83;33.27;99554.92;1713275;83;21122;-71
2022/05/14 08:34:45;;;;;;;29.40;14.53;;;;;;;24.57;34.24;99562.56;1713055;83;21049;-70
2022/05/14 08:37:12;;;;;;;27.13;12.58;;;;;;;24.28;35.08;99557.48;1713254;83;21034;-71
2022/05/14 08:39:39;;;;;;;26.00;12.33;;;;;;;23.98;35.37;99558.29;1713240;83;21577;-72
2022/05/14 08:42:09;;;;;;;26.12;14.15;;;;;;;23.73;35.67;99569.83;1713312;82;21113;-70
2022/05/14 08:44:36;;;;;;;24.30;12.80;;;;;;;23.43;36.42;99571.90;1712667;83;21562;-70
2022/05/14 08:47:06;;;;;;;28.23;14.23;;;;;;;23.19;37.11;99576.03;1713104;83;21022;-71
2022/05/14 08:49:39;;;;;;;32.05;15.05;;;;;;;23.02;37.33;99579.52;1713066;83;21045;-70
2022/05/14 08:52:19;;;;;;;36.33;16.85;;;;;;;22.94;37.83;99578.91;1713118;83;21077;-71
2022/05/14 08:54:45;;;;;;;36.63;16.32;;;;;;;22.76;38.23;99580.69;1713106;83;21621;-71
2022/05/14 08:57:33;;;;;;;34.00;15.88;;;;;;;22.73;38.79;99575.13;1713191;83;21102;-69
2022/05/14 09:00:00;;;;;;;30.57;15.68;;;;;;;22.86;38.56;99574.77;1713010;83;21486;-71
2022/05/14 09:02:35;;;;;;;30.52;14.85;;;;;;;22.96;38.54;99578.73;1713177;83;21163;-72
2022/05/14 09:05:11;;;;;;;30.62;17.37;;;;;;;22.99;38.63;99573.12;1712884;82;21070;-71
2022/05/14 09:07:38;;;;;;;31.85;16.87;;;;;;;23.00;38.75;99571.60;1713066;82;21102;-72
2022/05/14 09:10:08;;;;;;;36.68;18.27;;;;;;;22.96;38.17;99578.73;1713066;83;21037;-71
2022/05/14 09:12:37;;;;;;;40.43;17.77;;;;;;;22.74;37.72;99576.80;1713511;83;21065;-70
2022/05/14 09:15:10;;;;;;;25.65;15.55;;;;;;;22.56;37.85;99578.07;1712857;83;21199;-71
2022/05/14 09:17:37;;;;;;;31.55;16.65;;;;;;;22.44;37.47;99585.12;1711720;82;21036;-70
2022/05/14 09:20:07;;;;;;;31.35;17.75;;;;;;;22.27;37.34;99584.02;1713157;83;21504;-70
2022/05/14 09:22:45;;;;;;;31.05;17.07;;;;;;;22.27;37.61;99581.34;1712743;83;21080;-71
2022/05/14 09:25:25;;;;;;;31.48;15.95;;;;;;;22.27;37.51;99581.34;1712910;83;21076;-69
2022/05/14 09:27:56;;;;;;;26.82;13.60;;;;;;;22.36;36.47;99575.98;1712987;83;21056;-71
2022/05/14 09:30:46;;;;;;;26.80;11.12;;;;;;;22.39;35.95;99577.02;1713387;83;21580;-69
2022/05/14 09:33:31;;;;;;;16.23;8.15;;;;;;;22.45;35.00;99576.08;1713019;82;21746;-71
2022/05/14 09:36:00;;;;;;;13.28;5.90;;;;;;;22.64;34.83;99571.98;1713016;82;21566;-72
2022/05/14 09:38:29;;;;;;;13.93;4.87;;;;;;;22.79;33.58;99571.83;1713115;83;21091;-73
2022/05/14 09:41:09;;;;;;;12.58;4.58;;;;;;;22.85;32.71;99564.20;1713202;82;21179;-72
2022/05/14 09:43:36;;;;;;;11.45;4.78;;;;;;;22.87;33.62;99563.05;1712238;82;21344;-72
2022/05/14 09:46:10;;;;;;;8.98;5.35;;;;;;;22.91;33.90;99562.23;1713217;82;20993;-70
2022/05/14 09:48:49;;;;;;;8.83;4.92;;;;;;;22.91;33.91;99564.41;1712819;82;21032;-72
2022/05/14 09:51:39;;;;;;;8.30;3.70;;;;;;;22.86;34.19;99563.19;1713100;83;21547;-72
2022/05/14 09:54:22;;;;;;;7.22;3.33;;;;;;;22.68;33.57;99568.50;1701756;82;21055;-72
2022/05/14 09:57:38;;;;;;;7.10;3.22;;;;;;;22.47;33.90;99568.73;1712988;82;21027;-72
2022/05/14 10:00:23;;;;;;;6.25;3.67;;;;;;;22.19;33.81;99574.00;1662946;85;21863;-72
2022/05/14 10:03:20;;;;;;;6.58;2.60;;;;;;;21.98;34.38;99568.33;1713120;83;21587;-71
2022/05/14 10:06:05;;;;;;;6.35;2.87;;;;;;;21.91;34.72;99572.57;1702971;83;21555;-71
2022/05/14 10:08:43;;;;;;;6.87;3.65;;;;;;;21.92;34.91;99563.53;1720668;83;21034;-71
2022/05/14 10:11:27;;;;;;;9.65;3.52;;;;;;;22.02;35.02;99557.30;1720560;83;21054;-69
2022/05/14 10:14:15;;;;;;;10.18;4.10;;;;;;;22.17;35.30;99557.20;1699286;83;21317;-70
2022/05/14 10:17:28;;;;;;;7.50;4.15;;;;;;;22.49;35.26;99559.53;1691244;84;21118;-70
2022/05/14 10:20:34;;;;;;;13.72;5.30;;;;;;;22.88;35.33;99555.83;1691394;84;21614;-71
2022/05/14 10:26:50;;;;;;;12.43;4.97;;;;;;;23.76;34.23;99550.72;1691683;84;21050;-71
2022/05/14 10:29:56;;;;;;;6.70;3.95;;;;;;;24.46;33.01;99548.84;1691898;83;21156;-71
2022/05/14 10:32:26;;;;;;;10.72;3.87;;;;;;;24.89;32.12;99545.70;1691812;84;20995;-71
2022/05/14 10:35:19;;;;;;;7.58;3.50;;;;;;;25.40;31.11;99529.50;1691836;84;21070;-71
2022/05/14 10:37:56;;;;;;;10.58;3.52;;;;;;;25.72;30.70;99540.80;1691828;84;21055;-72
2022/05/14 10:40:41;;;;;;;5.12;2.83;;;;;;;26.09;29.25;99536.75;1691970;84;21079;-71
2022/05/14 10:43:45;;;;;;;9.73;3.00;;;;;;;26.42;28.87;99535.31;1691454;84;21199;-72
2022/05/14 10:46:19;;;;;;;6.70;2.60;;;;;;;26.60;27.69;99545.09;1691711;84;21090;-71
2022/05/14 10:49:00;;;;;;;7.95;2.55;;;;;;;26.55;27.53;99543.74;1691720;84;21090;-71
2022/05/14 10:51:30;;;;;;;6.10;2.00;;;;;;;26.77;27.72;99539.94;1691606;84;21578;-72
2022/05/14 10:54:00;;;;;;;5.08;2.00;;;;;;;27.09;26.92;99531.33;1691622;84;21094;-72
2022/05/14 10:56:35;;;;;;;14.43;2.60;;;;;;;27.28;26.62;99534.94;1691475;84;21925;-72
2022/05/14 10:59:13;;;;;;;5.10;2.27;;;;;;;27.25;26.45;99532.61;1691594;84;21084;-70
2022/05/14 11:01:58;;;;;;;4.83;1.92;;;;;;;27.38;26.75;99527.97;1691718;84;21760;-70
2022/05/14 11:04:38;;;;;;;5.40;2.08;;;;;;;27.52;26.38;99524.99;1694114;82;21634;-71
2022/05/14 11:07:10;;;;;;;;;;;;;;;27.59;26.79;99523.24;1693666;84;21096;-71
2022/05/14 11:09:47;;;;;;;4.40;1.72;;;;;;;27.48;26.61;99529.08;1691191;84;21328;-70
2022/05/14 11:12:26;;;;;;;5.87;1.85;;;;;;;27.15;26.48;99531.98;1690901;84;21497;-71
2022/05/14 11:14:57;;;;;;;4.65;1.35;;;;;;;26.72;26.99;99536.92;1673441;85;21173;-71
2022/05/14 11:17:40;;;;;;;3.40;1.20;;;;;;;26.51;27.18;99532.09;1673492;85;21601;-71
2022/05/14 11:20:15;;;;;;;3.22;1.70;;;;;;;26.33;26.75;99530.95;1673578;85;21121;-70
2022/05/14 11:22:49;;;;;;;2.10;1.25;;;;;;;25.78;27.46;99543.83;1672697;85;21171;-70
2022/05/14 11:25:23;;;;;;;3.50;1.40;;;;;;;25.20;28.34;99545.64;1670608;85;21034;-70
2022/05/14 11:28:06;;;;;;;5.65;1.55;;;;;;;24.69;29.17;99542.92;1673428;85;21058;-70
2022/05/14 11:30:41;;;;;;;6.08;1.50;;;;;;;24.45;29.72;99543.09;1673416;85;21104;-70
2022/05/14 11:33:28;;;;;;;4.37;1.80;;;;;;;24.41;30.19;99537.72;1673638;85;21129;-70
2022/05/14 11:36:01;;;;;;;2.40;1.20;;;;;;;24.45;30.11;99548.98;1673786;85;22123;-71
2022/05/14 11:38:39;;;;;;;3.60;1.45;;;;;;;24.38;30.13;99542.56;1673530;85;21114;-71
2022/05/14 11:41:09;;;;;;;4.40;1.90;;;;;;;24.12;31.00;99549.31;1673742;85;21123;-70
2022/05/14 11:43:43;;;;;;;3.53;1.80;;;;;;;23.83;30.76;99543.71;1673608;85;21062;-71
2022/05/14 11:46:31;;;;;;;7.87;2.67;;;;;;;23.64;31.41;99554.12;1673728;85;21128;-70
2022/05/14 11:49:20;;;;;;;4.53;2.10;;;;;;;23.51;31.83;99550.47;1673538;85;21177;-71
2022/05/14 11:52:04;;;;;;;4.70;2.12;;;;;;;23.69;32.14;99555.00;1673572;85;21101;-70
2022/05/14 11:55:07;;;;;;;5.00;2.42;;;;;;;23.85;31.86;99541.71;1673654;85;21093;-71
2022/05/14 11:57:51;;;;;;;4.15;2.00;;;;;;;23.97;31.39;99551.23;1673405;85;21062;-70
2022/05/14 12:00:22;;;;;;;5.30;2.42;;;;;;;23.96;31.83;99558.94;1673474;85;21054;-71
2022/05/14 12:03:23;;;;;;;4.65;2.42;;;;;;;23.67;31.79;99555.14;1672832;85;21371;-71
2022/05/14 12:05:55;;;;;;;9.60;2.72;;;;;;;23.33;31.94;99557.67;1669469;85;21023;-71
2022/05/14 12:08:54;;;;;;;6.85;3.27;;;;;;;22.96;32.80;99559.47;1665532;86;21578;-71